Time;durP1;ratioP1;P1;durP2;ratioP2;P2;SDS_P1;SDS_P2;PMS_P1;PMS_P2;Temp;Humidity;BMP_temperature;BMP_pressure;BME280_temperature;BME280_humidity;BME280_pressure;Samples;Min_cycle;Max_cycle;Signal;HPM_P1;HPM_P2
2021/11/09 00:02:38;;;;;;;8.38;7.18;;;;;;;;;;5059002;28;20132;-76
2021/11/09 00:05:31;;;;;;;7.15;6.43;;;;;;;;;;5076329;28;20037;-75
2021/11/09 00:08:28;;;;;;;7.03;6.35;;;;;;;;;;5076087;28;20504;-72
2021/11/09 00:11:35;;;;;;;7.20;6.50;;;;;;;;;;5062459;28;20408;-72
2021/11/09 00:14:37;;;;;;;7.22;6.15;;;;;;;;;;5072479;28;20086;-77
2021/11/09 00:20:18;;;;;;;7.90;6.18;;;;;;;;;;5074863;28;19909;-77
2021/11/09 00:23:06;;;;;;;7.72;6.63;;;;;;;;;;5076492;28;20040;-77
2021/11/09 00:25:40;;;;;;;7.72;6.53;;;;;;;;;;5042459;28;20392;-77
2021/11/09 00:28:07;;;;;;;6.63;5.95;;;;;;;;;;5076001;28;20044;-77
2021/11/09 00:30:33;;;;;;;7.18;6.13;;;;;;;;;;5058266;28;20032;-77
2021/11/09 00:33:02;;;;;;;6.80;5.53;;;;;;;;;;5057964;28;20041;-77
2021/11/09 00:35:29;;;;;;;6.67;6.00;;;;;;;;;;5057593;28;20032;-77
2021/11/09 00:37:56;;;;;;;6.43;5.82;;;;;;;;;;5075646;28;20499;-77
2021/11/09 00:40:31;;;;;;;6.50;5.85;;;;;;;;;;5076127;28;20020;-77
2021/11/09 00:42:57;;;;;;;6.28;5.40;;;;;;;;;;5075405;28;20131;-77
2021/11/09 00:45:29;;;;;;;5.40;4.90;;;;;;;;;;5075273;28;20028;-77
2021/11/09 00:47:56;;;;;;;6.03;5.43;;;;;;;;;;5075167;28;20083;-77
2021/11/09 00:50:22;;;;;;;5.90;5.38;;;;;;;;;;5075294;28;20028;-77
2021/11/09 00:52:57;;;;;;;5.50;5.00;;;;;;;;;;5075320;28;20447;-77
2021/11/09 00:55:24;;;;;;;5.72;5.22;;;;;;;;;;5075734;28;20067;-77
2021/11/09 00:57:51;;;;;;;5.63;5.07;;;;;;;;;;5075410;28;20028;-77
2021/11/09 01:00:23;;;;;;;6.00;5.00;;;;;;;;;;5057308;28;20102;-78
2021/11/09 01:02:55;;;;;;;5.85;5.25;;;;;;;;;;5057319;28;20047;-76
2021/11/09 01:05:25;;;;;;;5.57;5.07;;;;;;;;;;5056902;28;20408;-76
2021/11/09 01:07:57;;;;;;;5.22;4.82;;;;;;;;;;5075436;28;20028;-76
2021/11/09 01:10:23;;;;;;;5.95;5.28;;;;;;;;;;5057210;28;20066;-78
2021/11/09 01:13:12;;;;;;;7.60;5.78;;;;;;;;;;5075434;28;20020;-77
2021/11/09 01:15:50;;;;;;;5.80;5.20;;;;;;;;;;5074749;28;20033;-77
2021/11/09 01:18:30;;;;;;;6.22;5.47;;;;;;;;;;5074967;28;20040;-77
2021/11/09 01:21:04;;;;;;;;;;;;;;;;;;5076123;28;20048;-76
2021/11/09 01:23:31;;;;;;;6.00;5.43;;;;;;;;;;5074792;28;19939;-75
2021/11/09 01:26:05;;;;;;;5.90;5.07;;;;;;;;;;5074679;28;20044;-75
2021/11/09 01:28:33;;;;;;;7.95;6.03;;;;;;;;;;5074412;28;20510;-76
2021/11/09 01:30:59;;;;;;;6.18;5.40;;;;;;;;;;5074390;28;20208;-77
2021/11/09 01:33:25;;;;;;;6.45;5.82;;;;;;;;;;5075109;28;20131;-77
2021/11/09 01:35:52;;;;;;;6.35;5.20;;;;;;;;;;5074641;28;20079;-76
2021/11/09 01:38:19;;;;;;;5.57;4.88;;;;;;;;;;5074617;28;20036;-74
2021/11/09 01:40:46;;;;;;;5.68;5.15;;;;;;;;;;5074857;28;20035;-78
2021/11/09 01:43:20;;;;;;;7.05;5.50;;;;;;;;;;5074242;28;20123;-77
2021/11/09 01:45:48;;;;;;;6.22;5.63;;;;;;;;;;5074394;28;20480;-77
2021/11/09 01:48:14;;;;;;;5.82;5.25;;;;;;;;;;5074195;28;20396;-71
2021/11/09 01:50:40;;;;;;;5.63;4.45;;;;;;;;;;5056169;28;20041;-71
2021/11/09 01:53:06;;;;;;;5.70;4.82;;;;;;;;;;5074270;28;20031;-73
2021/11/09 01:55:35;;;;;;;5.47;4.50;;;;;;;;;;5073943;28;20039;-73
2021/11/09 01:58:01;;;;;;;5.68;4.40;;;;;;;;;;5074261;28;20025;-73
2021/11/09 02:00:30;;;;;;;5.45;4.95;;;;;;;;;;5074126;28;20047;-72
2021/11/09 02:02:56;;;;;;;4.50;4.10;;;;;;;;;;5055891;28;20391;-72
2021/11/09 02:05:26;;;;;;;5.05;4.55;;;;;;;;;;5074076;28;20123;-78
2021/11/09 02:07:53;;;;;;;4.07;3.67;;;;;;;;;;5056375;28;20479;-75
2021/11/09 02:10:22;;;;;;;5.25;4.53;;;;;;;;;;5055621;28;20123;-75
2021/11/09 02:13:03;;;;;;;4.68;4.10;;;;;;;;;;5074092;28;20032;-75
2021/11/09 02:15:29;;;;;;;4.38;4.00;;;;;;;;;;5073104;28;20119;-75
2021/11/09 02:17:56;;;;;;;3.83;3.47;;;;;;;;;;5073765;28;20472;-75
2021/11/09 02:20:29;;;;;;;4.40;4.00;;;;;;;;;;5073552;28;20534;-75
2021/11/09 02:22:58;;;;;;;3.88;3.53;;;;;;;;;;5073717;28;20440;-75
2021/11/09 02:25:24;;;;;;;4.05;3.75;;;;;;;;;;5055822;28;20028;-75
2021/11/09 02:27:50;;;;;;;4.18;3.78;;;;;;;;;;5073803;28;20037;-76
2021/11/09 02:30:17;;;;;;;4.70;4.35;;;;;;;;;;5073560;28;20158;-74
2021/11/09 02:32:46;;;;;;;4.43;3.65;;;;;;;;;;5055363;28;20045;-75
2021/11/09 02:35:13;;;;;;;4.18;3.45;;;;;;;;;;5073389;28;20033;-76
2021/11/09 02:37:40;;;;;;;3.78;3.47;;;;;;;;;;5073765;28;20487;-71
2021/11/09 02:40:09;;;;;;;4.20;3.80;;;;;;;;;;5073507;28;20581;-71
2021/11/09 02:42:36;;;;;;;4.78;3.75;;;;;;;;;;5073756;28;20044;-71
2021/11/09 02:45:12;;;;;;;3.88;3.45;;;;;;;;;;5055509;28;20062;-71
2021/11/09 02:47:51;;;;;;;5.10;3.83;;;;;;;;;;5073367;28;20032;-71
2021/11/09 02:50:19;;;;;;;4.53;3.58;;;;;;;;;;5073466;28;20032;-76
2021/11/09 02:53:08;;;;;;;3.97;3.53;;;;;;;;;;5073429;28;20024;-76
2021/11/09 02:55:39;;;;;;;4.28;3.88;;;;;;;;;;5073293;28;20072;-76
2021/11/09 03:04:03;;;;;;;3.97;3.58;;;;;;;;;;5073748;28;20119;-76
2021/11/09 03:06:40;;;;;;;3.85;3.55;;;;;;;;;;5068992;28;20076;-76
2021/11/09 03:09:07;;;;;;;4.10;3.70;;;;;;;;;;5072490;28;20044;-76
2021/11/09 03:11:43;;;;;;;3.63;3.33;;;;;;;;;;5073111;28;20403;-76
2021/11/09 03:14:17;;;;;;;3.83;3.47;;;;;;;;;;5073655;28;20041;-76
2021/11/09 03:16:44;;;;;;;4.03;3.63;;;;;;;;;;5073043;28;20048;-76
2021/11/09 03:46:44;;;;;;;3.53;3.13;;;;;;;;;;5076591;28;20041;-71
2021/11/09 03:49:11;;;;;;;3.67;3.35;;;;;;;;;;5076228;28;20082;-71
2021/11/09 03:51:36;;;;;;;4.05;3.35;;;;;;;;;;5076285;28;20033;-71
2021/11/09 03:54:09;;;;;;;4.07;3.70;;;;;;;;;;5058436;28;20103;-76
2021/11/09 03:59:06;;;;;;;3.72;3.25;;;;;;;;;;5076363;28;20083;-75
2021/11/09 04:01:40;;;;;;;3.90;3.35;;;;;;;;;;5058629;28;20042;-75
2021/11/09 04:11:38;;;;;;;3.15;2.92;;;;;;;;;;5076180;28;20119;-75
2021/11/09 04:16:40;;;;;;;3.60;3.30;;;;;;;;;;5076641;28;20052;-77
2021/11/09 04:22:00;;;;;;;3.40;3.10;;;;;;;;;;5075728;28;20028;-71
2021/11/09 04:32:15;;;;;;;3.45;3.15;;;;;;;;;;5075466;28;20033;-71
2021/11/09 05:10:36;;;;;;;4.93;4.32;;;;;;;;;;5074839;28;20048;-76
2021/11/09 05:13:03;;;;;;;4.72;4.15;;;;;;;;;;5074638;28;20476;-76
2021/11/09 05:15:29;;;;;;;4.38;3.90;;;;;;;;;;5074444;28;20029;-76
2021/11/09 05:17:57;;;;;;;4.90;4.22;;;;;;;;;;5056632;28;20032;-76
2021/11/09 05:20:30;;;;;;;4.55;4.15;;;;;;;;;;5074704;28;20036;-76
2021/11/09 05:22:55;;;;;;;4.82;4.38;;;;;;;;;;5074562;28;20040;-76
2021/11/09 05:25:21;;;;;;;5.00;3.95;;;;;;;;;;5074603;28;20028;-76
2021/11/09 05:27:49;;;;;;;4.28;3.92;;;;;;;;;;5074717;28;20111;-78
2021/11/09 05:30:16;;;;;;;4.38;3.95;;;;;;;;;;5074753;28;20491;-77
2021/11/09 05:32:45;;;;;;;6.68;3.88;;;;;;;;;;5056428;28;20074;-77
2021/11/09 05:35:19;;;;;;;5.05;4.25;;;;;;;;;;5074411;28;20113;-77
2021/11/09 05:37:53;;;;;;;4.60;4.20;;;;;;;;;;5074696;28;20380;-77
2021/11/09 05:40:25;;;;;;;5.85;4.18;;;;;;;;;;5074900;28;20111;-76
2021/11/09 05:42:51;;;;;;;4.75;4.22;;;;;;;;;;5075056;28;20029;-77
2021/11/09 05:45:20;;;;;;;5.18;4.18;;;;;;;;;;5056492;28;20032;-76
2021/11/09 05:47:47;;;;;;;4.93;4.53;;;;;;;;;;5073698;28;20429;-76
2021/11/09 05:50:13;;;;;;;5.82;4.43;;;;;;;;;;5073348;28;20059;-76
2021/11/09 05:56:14;;;;;;;4.80;4.35;;;;;;;;;;5074396;28;20035;-77
2021/11/09 06:02:16;;;;;;;9.02;4.95;;;;;;;;;;5074284;28;20381;-77
2021/11/09 06:08:17;;;;;;;5.18;4.45;;;;;;;;;;5074116;28;20043;-77
2021/11/09 06:14:16;;;;;;;5.80;4.93;;;;;;;;;;5074106;28;20140;-77
2021/11/09 06:20:17;;;;;;;6.55;4.63;;;;;;;;;;5073994;28;20490;-77
2021/11/09 06:26:17;;;;;;;5.30;4.78;;;;;;;;;;5074163;28;20027;-78
2021/11/09 06:36:07;;;;;;;4.85;4.38;;;;;;;;;;5074026;28;20023;-78
2021/11/09 06:42:07;;;;;;;4.85;4.38;;;;;;;;;;5073876;28;20078;-77
2021/11/09 06:48:09;;;;;;;6.57;4.97;;;;;;;;;;5073806;28;20142;-77
2021/11/09 06:54:10;;;;;;;6.13;4.93;;;;;;;;;;5073813;28;20028;-78
2021/11/09 07:00:12;;;;;;;5.78;4.82;;;;;;;;;;5073772;28;20526;-78
2021/11/09 07:06:13;;;;;;;5.70;4.50;;;;;;;;;;5073773;28;20029;-76
2021/11/09 07:12:14;;;;;;;6.07;4.32;;;;;;;;;;5073678;28;20149;-77
2021/11/09 07:18:14;;;;;;;6.03;4.97;;;;;;;;;;5073589;28;20115;-79
2021/11/09 07:27:58;;;;;;;4.78;4.32;;;;;;;;;;5073417;28;20141;-77
2021/11/09 07:34:00;;;;;;;4.85;4.03;;;;;;;;;;5072553;28;20149;-77
2021/11/09 07:36:35;;;;;;;4.50;4.00;;;;;;;;;;5072902;28;20124;-77
2021/11/09 07:39:12;;;;;;;4.88;4.38;;;;;;;;;;5054959;28;20127;-77
2021/11/09 07:41:44;;;;;;;4.68;4.25;;;;;;;;;;5072916;28;20399;-77
2021/11/09 07:44:12;;;;;;;5.50;4.05;;;;;;;;;;5073287;28;20435;-77
2021/11/09 07:46:49;;;;;;;4.70;4.03;;;;;;;;;;5072687;28;20020;-77
2021/11/09 07:49:28;;;;;;;4.88;4.40;;;;;;;;;;5054533;28;20041;-76
2021/11/09 07:55:31;;;;;;;5.00;3.95;;;;;;;;;;5073253;28;20027;-77
2021/11/09 08:01:37;;;;;;;4.72;3.92;;;;;;;;;;5073195;28;20149;-77
2021/11/09 08:07:51;;;;;;;4.00;3.60;;;;;;;;;;5073151;28;20039;-77
2021/11/09 08:18:04;;;;;;;4.10;3.70;;;;;;;;;;5034601;28;20436;-77
2021/11/09 08:24:07;;;;;;;3.85;3.35;;;;;;;;;;5034417;28;20443;-77
2021/11/09 08:45:29;;;;;;;4.22;3.83;;;;;;;;;;5055864;28;20036;-82
2021/11/09 09:05:58;;;;;;;4.22;3.83;;;;;;;;;;5055708;28;20035;-81
2021/11/09 09:11:59;;;;;;;3.95;3.55;;;;;;;;;;5055587;28;20032;-81
2021/11/09 09:18:00;;;;;;;4.80;4.13;;;;;;;;;;5048428;28;20567;-81
2021/11/09 09:24:09;;;;;;;4.35;3.95;;;;;;;;;;5055363;28;20028;-81
2021/11/09 09:56:20;;;;;;;4.72;3.55;;;;;;;;;;5032776;28;20048;-81
2021/11/09 10:02:24;;;;;;;3.88;3.30;;;;;;;;;;5074569;28;20119;-81
2021/11/09 10:08:24;;;;;;;4.85;3.78;;;;;;;;;;5074372;28;20051;-80
2021/11/09 10:14:33;;;;;;;5.75;4.00;;;;;;;;;;5074359;28;20145;-80
2021/11/09 10:35:02;;;;;;;5.47;3.90;;;;;;;;;;5072976;28;20035;-75
2021/11/09 10:41:17;;;;;;;5.60;4.95;;;;;;;;;;5053980;28;20400;-75
2021/11/09 10:47:19;;;;;;;4.32;3.85;;;;;;;;;;5053897;28;20036;-75
2021/11/09 10:59:46;;;;;;;6.10;4.45;;;;;;;;;;5053741;28;20090;-75
2021/11/09 11:10:30;;;;;;;47.17;24.13;;;;;;;;;;5053346;28;20036;-76
2021/11/09 11:16:38;;;;;;;64.10;38.60;;;;;;;;;;5053761;28;20048;-76
2021/11/09 11:22:40;;;;;;;56.28;39.05;;;;;;;;;;5053497;28;20035;-76
2021/11/09 11:28:41;;;;;;;42.40;32.63;;;;;;;;;;5053327;28;20032;-77
2021/11/09 11:34:43;;;;;;;18.92;16.83;;;;;;;;;;5053421;28;20035;-77
2021/11/09 11:43:55;;;;;;;24.23;21.70;;;;;;;;;;5073333;28;20067;-77
2021/11/09 11:49:59;;;;;;;24.77;22.25;;;;;;;;;;5076835;28;20044;-77
2021/11/09 11:55:59;;;;;;;20.52;15.23;;;;;;;;;;5076740;28;20028;-77
2021/11/09 12:02:00;;;;;;;10.35;9.02;;;;;;;;;;5077165;28;20039;-78
2021/11/09 12:08:02;;;;;;;42.67;29.27;;;;;;;;;;5076712;28;20177;-74
2021/11/09 12:14:05;;;;;;;13.00;10.65;;;;;;;;;;5076625;28;20024;-73
2021/11/09 13:12:41;;;;;;;11.40;9.10;;;;;;;;;;5071266;28;20499;-77
2021/11/09 13:15:12;;;;;;;8.65;7.70;;;;;;;;;;5074913;28;20032;-78
2021/11/09 13:17:41;;;;;;;8.38;7.38;;;;;;;;;;5074618;28;20044;-77
2021/11/09 13:21:05;;;;;;;10.93;9.65;;;;;;;;;;5074550;28;20021;-77
2021/11/09 13:22:56;;;;;;;11.90;9.57;;;;;;;;;;5052322;28;20134;-77
2021/11/09 13:25:27;;;;;;;15.82;12.63;;;;;;;;;;5056580;28;20480;-77
2021/11/09 13:27:53;;;;;;;19.63;12.88;;;;;;;;;;5074486;28;20044;-77
2021/11/09 13:30:20;;;;;;;25.30;16.65;;;;;;;;;;5074357;28;20037;-77
2021/11/09 13:32:48;;;;;;;15.40;11.50;;;;;;;;;;5074337;28;20043;-76
2021/11/09 13:35:18;;;;;;;12.27;9.65;;;;;;;;;;5074407;28;20020;-78
2021/11/09 13:37:43;;;;;;;14.93;10.75;;;;;;;;;;5056458;28;20047;-77
2021/11/09 13:40:09;;;;;;;10.75;9.50;;;;;;;;;;5074194;28;20396;-77
2021/11/09 13:42:35;;;;;;;29.83;19.23;;;;;;;;;;5056227;28;20036;-77
2021/11/09 13:45:00;;;;;;;10.48;9.38;;;;;;;;;;5074216;28;20074;-76
2021/11/09 13:47:30;;;;;;;20.42;18.30;;;;;;;;;;5056299;28;20038;-77
2021/11/09 13:50:10;;;;;;;17.30;13.85;;;;;;;;;;5073997;28;20035;-76
2021/11/09 13:52:44;;;;;;;21.35;17.70;;;;;;;;;;5074052;28;20115;-77
2021/11/09 13:55:10;;;;;;;21.90;14.63;;;;;;;;;;5073987;28;20648;-76
2021/11/09 13:57:38;;;;;;;23.30;19.10;;;;;;;;;;5074361;28;20028;-78
2021/11/09 14:00:19;;;;;;;19.52;16.80;;;;;;;;;;5074343;28;20032;-77
2021/11/09 14:02:57;;;;;;;15.50;12.23;;;;;;;;;;5056329;28;20119;-76
2021/11/09 14:16:52;;;;;;;11.73;10.45;;;;;;;;;;5030615;28;20040;-77
2021/11/09 14:19:28;;;;;;;11.57;9.15;;;;;;;;;;5074165;28;20077;-77
2021/11/09 14:21:58;;;;;;;9.52;8.50;;;;;;;;;;5074249;28;20044;-78
2021/11/09 14:24:28;;;;;;;13.13;9.77;;;;;;;;;;5055921;28;20506;-76
2021/11/09 14:27:00;;;;;;;35.10;20.58;;;;;;;;;;5073698;28;20075;-77
2021/11/09 14:29:26;;;;;;;57.85;30.23;;;;;;;;;;5073335;28;20052;-78
2021/11/09 14:32:04;;;;;;;47.33;26.83;;;;;;;;;;5073271;28;20029;-77
2021/11/09 14:34:31;;;;;;;59.72;32.55;;;;;;;;;;5055377;28;20495;-77
2021/11/09 14:37:22;;;;;;;36.78;21.90;;;;;;;;;;5073295;28;20020;-78
2021/11/09 14:39:47;;;;;;;;;;;;;;;;;;5073854;28;20446;-78
2021/11/09 14:42:25;;;;;;;31.20;19.95;;;;;;;;;;5038679;28;19904;-78
2021/11/09 14:44:54;;;;;;;20.67;13.52;;;;;;;;;;5073306;28;20041;-77
2021/11/09 14:47:20;;;;;;;42.92;21.67;;;;;;;;;;5055179;28;20031;-77
2021/11/09 14:49:57;;;;;;;30.20;14.60;;;;;;;;;;5072997;28;20044;-77
2021/11/09 14:52:27;;;;;;;34.63;14.57;;;;;;;;;;5073145;28;20032;-77
2021/11/09 14:55:02;;;;;;;43.92;17.30;;;;;;;;;;5073088;28;20040;-77
2021/11/09 14:57:32;;;;;;;199.45;117.38;;;;;;;;;;5073015;28;20114;-77
2021/11/09 15:00:01;;;;;;;262.48;176.43;;;;;;;;;;5072629;28;20464;-77
2021/11/09 15:02:28;;;;;;;108.93;84.00;;;;;;;;;;5073278;28;20036;-78
2021/11/09 15:04:54;;;;;;;222.80;136.38;;;;;;;;;;5073412;28;20021;-78
2021/11/09 15:12:56;;;;;;;135.32;74.80;;;;;;;;;;5054497;28;20127;-77
2021/11/09 15:29:16;;;;;;;32.72;18.85;;;;;;;;;;5058891;28;20037;-77
2021/11/09 15:32:06;;;;;;;72.87;42.43;;;;;;;;;;5076899;28;20028;-77
2021/11/09 15:40:28;;;;;;;99.28;53.70;;;;;;;;;;5053130;28;20038;-77
2021/11/09 15:43:08;;;;;;;86.60;54.53;;;;;;;;;;5076902;28;20472;-78
2021/11/09 15:48:24;;;;;;;180.43;89.45;;;;;;;;;;5076512;28;20348;-79
2021/11/09 15:50:50;;;;;;;227.68;115.43;;;;;;;;;;5041707;28;20504;-79
2021/11/09 15:53:15;;;;;;;148.90;85.97;;;;;;;;;;5076168;28;20230;-78
2021/11/09 15:55:41;;;;;;;128.57;84.85;;;;;;;;;;5074963;28;20428;-79
2021/11/09 15:58:06;;;;;;;75.68;51.13;;;;;;;;;;5075568;28;20385;-78
2021/11/09 16:00:32;;;;;;;80.70;54.85;;;;;;;;;;5075442;28;20045;-78
2021/11/09 16:02:58;;;;;;;48.92;37.47;;;;;;;;;;5058218;28;20033;-78
2021/11/09 16:05:24;;;;;;;44.97;34.85;;;;;;;;;;5058432;28;20033;-78
2021/11/09 16:07:51;;;;;;;76.78;56.00;;;;;;;;;;5057959;28;20060;-78
2021/11/09 16:10:19;;;;;;;73.35;54.88;;;;;;;;;;5057911;28;20044;-78
2021/11/09 16:12:45;;;;;;;73.50;54.42;;;;;;;;;;5075394;28;20124;-78
2021/11/09 16:18:46;;;;;;;63.33;50.88;;;;;;;;;;5076638;28;20062;-78
2021/11/09 16:24:47;;;;;;;136.55;69.90;;;;;;;;;;5076260;28;20054;-78
2021/11/09 16:30:49;;;;;;;78.40;69.15;;;;;;;;;;5076052;28;20430;-77
2021/11/09 16:36:50;;;;;;;64.85;53.10;;;;;;;;;;5076047;28;20059;-78
2021/11/09 16:42:58;;;;;;;53.92;44.58;;;;;;;;;;5076171;28;20019;-78
2021/11/09 18:21:41;;;;;;;102.75;58.08;;;;;;;;;;5074304;28;20039;-77
2021/11/09 18:27:43;;;;;;;121.63;69.40;;;;;;;;;;5074206;28;20118;-77
2021/11/09 18:33:44;;;;;;;118.85;64.95;;;;;;;;;;5074044;28;20403;-77
2021/11/09 18:39:46;;;;;;;103.18;58.70;;;;;;;;;;5074034;28;20614;-77
2021/11/09 18:49:58;;;;;;;82.93;48.55;;;;;;;;;;5073741;28;20037;-77
2021/11/09 18:55:59;;;;;;;106.47;60.40;;;;;;;;;;5073574;28;20030;-77
2021/11/09 19:02:00;;;;;;;118.03;62.03;;;;;;;;;;5073803;28;20023;-77
2021/11/09 19:08:01;;;;;;;146.50;75.97;;;;;;;;;;5073492;28;20047;-77
2021/11/09 19:14:02;;;;;;;109.32;57.05;;;;;;;;;;5073715;28;20100;-78
2021/11/09 19:23:39;;;;;;;82.40;46.67;;;;;;;;;;5073608;28;20086;-78
2021/11/09 19:29:41;;;;;;;75.65;41.47;;;;;;;;;;5073086;28;20071;-78
2021/11/09 19:35:43;;;;;;;69.40;40.30;;;;;;;;;;5073724;28;20035;-78
2021/11/09 19:41:44;;;;;;;75.57;41.15;;;;;;;;;;5073611;28;20151;-78
2021/11/09 19:47:47;;;;;;;101.03;61.70;;;;;;;;;;5073322;28;20031;-78
2021/11/09 19:53:50;;;;;;;59.13;41.80;;;;;;;;;;5073277;28;20124;-78
2021/11/09 19:59:50;;;;;;;46.17;30.98;;;;;;;;;;5073271;28;20032;-79
2021/11/09 20:05:54;;;;;;;49.03;32.50;;;;;;;;;;5072975;28;20071;-79
2021/11/09 20:11:55;;;;;;;49.03;32.63;;;;;;;;;;5076510;28;20083;-79
2021/11/09 20:17:55;;;;;;;36.45;26.40;;;;;;;;;;5076659;28;20082;-79
2021/11/09 20:27:08;;;;;;;33.15;24.80;;;;;;;;;;5076512;28;20595;-78
2021/11/09 20:29:40;;;;;;;42.38;32.55;;;;;;;;;;5075945;28;20039;-78
2021/11/09 20:32:07;;;;;;;47.20;32.05;;;;;;;;;;5033997;28;20040;-79
2021/11/09 20:34:33;;;;;;;38.80;28.10;;;;;;;;;;5035621;28;20061;-79
2021/11/09 20:36:58;;;;;;;35.33;25.73;;;;;;;;;;5017727;28;20065;-80
2021/11/09 20:39:28;;;;;;;39.92;26.63;;;;;;;;;;5017560;28;20025;-79
2021/11/09 20:41:54;;;;;;;52.85;33.35;;;;;;;;;;5035463;28;20045;-79
2021/11/09 20:44:21;;;;;;;56.15;35.15;;;;;;;;;;5035238;28;20040;-79
2021/11/09 20:46:47;;;;;;;56.72;34.40;;;;;;;;;;5017788;28;20041;-80
2021/11/09 20:49:13;;;;;;;47.70;30.08;;;;;;;;;;5017273;28;20497;-79
2021/11/09 20:51:39;;;;;;;42.40;28.05;;;;;;;;;;5035288;28;20033;-79
2021/11/09 20:54:05;;;;;;;38.88;27.02;;;;;;;;;;5017562;28;20109;-79
2021/11/09 20:56:31;;;;;;;35.05;23.48;;;;;;;;;;5035205;28;20176;-78
2021/11/09 20:58:56;;;;;;;39.78;30.55;;;;;;;;;;5035113;28;20086;-79
2021/11/09 21:01:24;;;;;;;46.30;30.05;;;;;;;;;;5035043;28;20132;-78
2021/11/09 21:03:50;;;;;;;53.63;32.78;;;;;;;;;;5034985;28;20485;-78
2021/11/09 21:06:15;;;;;;;62.28;35.95;;;;;;;;;;5034699;28;20029;-79
2021/11/09 21:12:24;;;;;;;65.15;38.42;;;;;;;;;;5035781;28;20075;-78
2021/11/09 21:26:22;;;;;;;55.53;31.42;;;;;;;;;;5012413;28;20032;-79
2021/11/09 21:29:03;;;;;;;58.00;31.80;;;;;;;;;;4995830;28;20034;-78
2021/11/09 21:36:26;;;;;;;42.58;26.02;;;;;;;;;;5012204;28;20448;-74
2021/11/09 21:38:51;;;;;;;46.00;26.67;;;;;;;;;;5013651;28;20246;-77
2021/11/09 21:41:19;;;;;;;42.83;25.60;;;;;;;;;;4999678;28;20497;-76
2021/11/09 21:43:48;;;;;;;39.10;25.05;;;;;;;;;;5032366;28;20030;-76
2021/11/09 21:46:14;;;;;;;43.60;26.73;;;;;;;;;;5053542;28;20084;-75
2021/11/09 21:48:40;;;;;;;51.47;32.40;;;;;;;;;;5073869;28;20492;-76
2021/11/09 21:51:06;;;;;;;36.90;25.58;;;;;;;;;;5073598;28;20024;-76
2021/11/09 21:53:34;;;;;;;29.83;21.35;;;;;;;;;;5073634;28;20047;-76
2021/11/09 21:56:02;;;;;;;29.55;19.58;;;;;;;;;;5073948;28;20043;-77
2021/11/09 21:58:31;;;;;;;24.80;18.15;;;;;;;;;;5056290;28;20036;-78
2021/11/09 22:00:57;;;;;;;24.50;17.95;;;;;;;;;;5074356;28;20037;-77
2021/11/09 22:03:22;;;;;;;23.48;17.23;;;;;;;;;;5074098;28;20025;-78
2021/11/09 22:05:49;;;;;;;23.38;17.23;;;;;;;;;;5073890;28;20039;-78
2021/11/09 22:08:14;;;;;;;23.83;17.75;;;;;;;;;;5055981;28;20032;-78
2021/11/09 22:10:40;;;;;;;28.02;18.58;;;;;;;;;;5074181;28;20090;-77
2021/11/09 22:13:08;;;;;;;29.60;18.80;;;;;;;;;;5056087;28;20031;-77
2021/11/09 22:15:39;;;;;;;27.88;19.40;;;;;;;;;;5074326;28;20036;-77
2021/11/09 22:18:04;;;;;;;25.85;18.75;;;;;;;;;;5074020;28;20074;-77
2021/11/09 22:20:35;;;;;;;22.90;17.02;;;;;;;;;;5074023;28;20407;-76
2021/11/09 22:23:01;;;;;;;21.80;17.13;;;;;;;;;;5038694;28;20064;-76
2021/11/09 22:25:27;;;;;;;21.65;15.80;;;;;;;;;;5055830;28;20500;-76
2021/11/09 22:28:03;;;;;;;23.05;16.48;;;;;;;;;;5073693;28;20032;-76
2021/11/09 22:30:54;;;;;;;21.70;15.68;;;;;;;;;;5073564;28;20033;-77
2021/11/09 22:33:32;;;;;;;;;;;;;;;;;;5039309;28;20037;-76
2021/11/09 22:36:00;;;;;;;118.20;85.95;;;;;;;;;;5073378;28;19958;-77
2021/11/09 22:38:27;;;;;;;28.02;22.58;;;;;;;;;;5073055;28;20025;-77
2021/11/09 22:40:54;;;;;;;27.10;21.98;;;;;;;;;;5074044;28;20045;-77
2021/11/09 22:43:20;;;;;;;27.27;22.83;;;;;;;;;;5073561;28;20028;-75
2021/11/09 22:45:45;;;;;;;47.67;42.65;;;;;;;;;;5073383;28;20086;-75
2021/11/09 22:48:13;;;;;;;21.75;17.23;;;;;;;;;;5073555;28;20021;-74
2021/11/09 22:50:38;;;;;;;22.13;15.35;;;;;;;;;;5055273;28;20392;-74
2021/11/09 22:53:04;;;;;;;22.00;18.23;;;;;;;;;;5073380;28;20085;-75
2021/11/09 22:55:29;;;;;;;21.95;16.95;;;;;;;;;;5055648;28;20041;-74
2021/11/09 22:57:55;;;;;;;18.58;15.10;;;;;;;;;;5073473;28;20073;-74
2021/11/09 23:00:26;;;;;;;20.13;15.70;;;;;;;;;;5073928;28;20036;-78
2021/11/09 23:02:59;;;;;;;20.85;15.65;;;;;;;;;;5073564;28;20044;-78
2021/11/09 23:05:36;;;;;;;19.60;15.18;;;;;;;;;;5073138;28;20062;-78
2021/11/09 23:08:02;;;;;;;19.27;14.10;;;;;;;;;;5055490;28;20409;-78
2021/11/09 23:10:29;;;;;;;25.02;16.00;;;;;;;;;;5073445;28;20044;-77
2021/11/09 23:12:56;;;;;;;22.45;14.45;;;;;;;;;;5055293;28;20028;-76
2021/11/09 23:15:31;;;;;;;27.73;17.88;;;;;;;;;;5073245;28;20032;-76
2021/11/09 23:21:01;;;;;;;18.85;14.38;;;;;;;;;;5073268;28;20546;-75
2021/11/09 23:23:28;;;;;;;18.27;14.20;;;;;;;;;;5072173;28;20049;-80
2021/11/09 23:29:24;;;;;;;34.63;19.65;;;;;;;;;;5073004;28;20079;-76
2021/11/09 23:31:59;;;;;;;31.40;16.92;;;;;;;;;;5072895;28;20029;-80
2021/11/09 23:40:40;;;;;;;24.48;14.68;;;;;;;;;;5072728;28;20515;-77
2021/11/09 23:43:14;;;;;;;24.17;15.32;;;;;;;;;;5072738;28;20043;-77
2021/11/09 23:46:04;;;;;;;22.02;15.00;;;;;;;;;;5076324;28;20733;-77
2021/11/09 23:48:38;;;;;;;21.50;15.27;;;;;;;;;;5076550;28;20480;-77
2021/11/09 23:51:11;;;;;;;21.70;15.25;;;;;;;;;;5076685;28;20115;-77
2021/11/09 23:54:19;;;;;;;58.72;25.88;;;;;;;;;;5076596;28;20036;-77
2021/11/09 23:56:38;;;;;;;60.38;26.17;;;;;;;;;;5074067;28;20047;-76
2021/11/09 23:59:04;;;;;;;36.63;20.77;;;;;;;;;;5076851;28;20377;-77
